Time;durP1;ratioP1;P1;durP2;ratioP2;P2;SDS_P1;SDS_P2;PMS_P1;PMS_P2;Temp;Humidity;BMP_temperature;BMP_pressure;BME280_temperature;BME280_humidity;BME280_pressure;Samples;Min_cycle;Max_cycle;Signal;HPM_P1;HPM_P2
2022/06/20 00:00:27;;;;;;;4.75;2.30;;;;;;;22.66;52.57;99504.98;1741314;81;21766;-73
2022/06/20 00:02:55;;;;;;;2.87;2.10;;;;;;;22.66;52.59;99511.27;1760085;81;20928;-77
2022/06/20 00:05:27;;;;;;;3.65;2.15;;;;;;;22.64;52.61;99505.91;1746254;81;21117;-78
2022/06/20 00:07:54;;;;;;;6.80;2.42;;;;;;;22.63;52.73;99505.66;1733259;82;21079;-75
2022/06/20 00:10:23;;;;;;;2.87;2.22;;;;;;;22.63;52.50;99505.09;1703280;84;21030;-72
2022/06/20 00:12:50;;;;;;;2.65;2.08;;;;;;;22.63;52.57;99504.30;1709266;82;21126;-73
2022/06/20 00:15:34;;;;;;;3.22;2.40;;;;;;;22.61;52.52;99501.31;1733923;82;20909;-72
2022/06/20 00:18:05;;;;;;;5.83;2.42;;;;;;;22.61;52.44;99509.53;1721933;82;20987;-80
2022/06/20 00:20:32;;;;;;;6.03;2.60;;;;;;;22.59;52.40;99509.05;1710974;82;20976;-80
2022/06/20 00:22:58;;;;;;;3.80;2.15;;;;;;;22.57;52.44;99500.38;1673156;84;21036;-80
2022/06/20 00:25:26;;;;;;;9.40;2.40;;;;;;;22.55;52.45;99503.20;1702632;84;21545;-80
2022/06/20 00:27:55;;;;;;;4.03;2.37;;;;;;;22.52;52.49;99506.63;1702446;84;20971;-79
2022/06/20 00:30:22;;;;;;;5.10;1.85;;;;;;;22.49;52.53;99502.59;1702906;84;21007;-79
2022/06/20 00:32:51;;;;;;;4.55;2.50;;;;;;;22.46;52.48;99510.12;1702564;84;21086;-74
2022/06/20 00:35:19;;;;;;;3.83;2.50;;;;;;;22.45;52.47;99501.66;1693917;82;21027;-75
2022/06/20 00:37:47;;;;;;;8.03;2.42;;;;;;;22.44;52.44;99510.23;1702767;82;21100;-70
2022/06/20 00:40:22;;;;;;;6.17;3.55;;;;;;;22.42;52.55;99505.08;1709311;82;21024;-75
2022/06/20 00:42:51;;;;;;;2.30;2.10;;;;;;;22.41;52.50;99494.44;1702573;84;21001;-75
2022/06/20 00:45:18;;;;;;;7.33;2.10;;;;;;;22.39;52.36;99500.83;1702188;84;21049;-76
2022/06/20 00:47:44;;;;;;;3.05;2.00;;;;;;;22.38;52.41;99492.38;1728940;82;21122;-75
2022/06/20 00:50:23;;;;;;;1.85;1.67;;;;;;;22.36;52.20;99488.58;1675850;85;21498;-76
2022/06/20 00:53:20;;;;;;;3.92;2.42;;;;;;;22.35;52.19;99488.94;1681755;84;21551;-76
2022/06/20 00:55:54;;;;;;;7.30;2.10;;;;;;;22.33;52.05;99479.67;1707708;82;21264;-77
2022/06/20 00:58:47;;;;;;;2.62;2.12;;;;;;;22.34;52.07;99477.73;1716713;82;21506;-70
2022/06/20 01:01:16;;;;;;;4.30;2.90;;;;;;;22.31;51.92;99472.34;1692732;84;21111;-73
2022/06/20 01:03:50;;;;;;;2.87;2.00;;;;;;;22.31;52.04;99477.02;1704118;84;21809;-73
2022/06/20 01:06:28;;;;;;;2.58;1.95;;;;;;;22.29;52.21;99478.73;1704881;82;21827;-75
2022/06/20 01:08:59;;;;;;;8.90;2.62;;;;;;;22.25;52.31;99471.52;1733834;82;21288;-76
2022/06/20 01:11:27;;;;;;;3.00;2.12;;;;;;;22.18;52.57;99482.42;1733631;82;21322;-76
2022/06/20 01:13:55;;;;;;;3.77;2.90;;;;;;;22.13;52.73;99477.70;1697940;84;21105;-75
2022/06/20 01:16:32;;;;;;;2.35;2.12;;;;;;;22.07;52.95;99479.02;1674361;84;21531;-75
2022/06/20 01:19:01;;;;;;;2.92;1.82;;;;;;;22.02;52.96;99474.53;1674932;84;21016;-76
2022/06/20 01:21:32;;;;;;;6.45;2.35;;;;;;;21.97;52.72;99471.98;1696333;82;21035;-74
2022/06/20 01:24:13;;;;;;;9.68;2.47;;;;;;;21.93;53.17;99468.30;1719112;83;21072;-75
2022/06/20 01:27:19;;;;;;;5.58;2.77;;;;;;;21.89;53.05;99473.36;1719024;83;21530;-73
2022/06/20 01:29:47;;;;;;;4.67;2.00;;;;;;;21.87;52.94;99467.44;1720744;82;21038;-72
2022/06/20 01:32:14;;;;;;;3.02;2.72;;;;;;;21.84;52.57;99463.41;1698295;84;20977;-74
2022/06/20 01:34:41;;;;;;;3.62;2.33;;;;;;;21.83;52.79;99466.46;1692654;84;21495;-77
2022/06/20 01:37:29;;;;;;;2.75;2.10;;;;;;;21.81;52.71;99461.33;1728200;83;21533;-73
2022/06/20 01:40:04;;;;;;;4.22;2.20;;;;;;;21.81;52.45;99464.64;1692615;82;20985;-72
2022/06/20 01:42:31;;;;;;;2.47;2.10;;;;;;;21.79;52.42;99463.59;1697202;84;21528;-73
2022/06/20 01:48:05;;;;;;;3.08;2.25;;;;;;;21.78;52.47;99473.48;1705524;82;21171;-77
2022/06/20 01:50:34;;;;;;;5.60;2.03;;;;;;;21.77;52.20;99467.80;1722758;81;21045;-78
2022/06/20 01:53:03;;;;;;;5.25;2.50;;;;;;;21.75;52.17;99462.64;1694759;84;20951;-77
2022/06/20 01:55:30;;;;;;;4.12;2.20;;;;;;;21.75;52.06;99464.81;1697159;84;21540;-78
2022/06/20 01:58:11;;;;;;;7.03;2.52;;;;;;;21.73;51.97;99462.96;1697299;84;21039;-77
2022/06/20 02:00:37;;;;;;;3.20;2.33;;;;;;;21.71;52.16;99455.66;1685260;83;21116;-78
2022/06/20 02:03:12;;;;;;;4.47;2.42;;;;;;;21.70;52.05;99460.89;1665784;86;21042;-77
2022/06/20 02:05:38;;;;;;;2.10;1.90;;;;;;;21.67;52.19;99458.83;1666491;86;21580;-77
2022/06/20 02:08:07;;;;;;;5.17;2.33;;;;;;;21.65;52.39;99467.92;1666178;86;21237;-77
2022/06/20 02:10:43;;;;;;;3.95;2.15;;;;;;;21.61;52.47;99470.27;1666222;86;21589;-76
2022/06/20 02:13:13;;;;;;;3.65;2.65;;;;;;;21.52;52.68;99468.95;1669995;84;21020;-77
2022/06/20 02:15:41;;;;;;;2.10;1.80;;;;;;;21.52;52.68;99468.95;1678614;84;21057;-75
2022/06/20 02:18:08;;;;;;;2.08;1.87;;;;;;;21.49;52.68;99477.79;1671339;84;21100;-76
2022/06/20 02:20:45;;;;;;;5.22;2.17;;;;;;;21.45;52.96;99480.14;1701696;83;20943;-76
2022/06/20 02:23:09;;;;;;;3.42;2.15;;;;;;;21.41;52.99;99481.37;1704754;83;21489;-76
2022/06/20 02:25:35;;;;;;;5.80;2.02;;;;;;;21.37;53.01;99485.08;1673832;85;21072;-77
2022/06/20 02:28:08;;;;;;;3.22;2.37;;;;;;;21.35;53.27;99490.06;1684196;84;20956;-76
2022/06/20 02:30:35;;;;;;;3.72;2.25;;;;;;;21.31;53.06;99489.36;1721935;82;21087;-76
2022/06/20 02:33:18;;;;;;;2.70;2.25;;;;;;;21.30;53.08;99496.52;1699788;82;21159;-76
2022/06/20 02:35:45;;;;;;;2.67;2.12;;;;;;;21.28;53.04;99500.96;1703641;84;20992;-78
2022/06/20 02:38:13;;;;;;;4.62;2.40;;;;;;;21.29;53.04;99497.66;1691443;84;21056;-77
2022/06/20 02:40:42;;;;;;;3.98;2.45;;;;;;;21.28;53.07;99496.05;1700890;83;20974;-76
2022/06/20 02:43:19;;;;;;;7.60;2.35;;;;;;;21.27;53.12;99498.54;1704069;82;21586;-76
2022/06/20 02:45:45;;;;;;;3.37;2.10;;;;;;;21.27;53.06;99506.75;1701847;83;21804;-76
2022/06/20 02:48:12;;;;;;;2.75;2.27;;;;;;;21.27;53.08;99501.28;1726665;82;21044;-77
2022/06/20 02:50:44;;;;;;;3.58;1.98;;;;;;;21.27;52.86;99504.82;1734697;82;20961;-77
2022/06/20 02:53:32;;;;;;;4.08;2.67;;;;;;;21.27;52.86;99504.82;1695756;84;21067;-76
2022/06/20 02:56:00;;;;;;;4.28;2.80;;;;;;;21.31;53.03;99514.54;1688910;84;21028;-78
2022/06/20 02:58:30;;;;;;;2.37;2.17;;;;;;;21.31;53.03;99515.34;1704555;83;21326;-75
2022/06/20 03:01:24;;;;;;;6.42;2.25;;;;;;;21.35;53.10;99527.80;1700782;83;20965;-74
2022/06/20 03:03:54;;;;;;;4.05;2.12;;;;;;;21.35;53.10;99527.80;1692335;84;20980;-73
2022/06/20 03:06:26;;;;;;;3.62;2.15;;;;;;;21.39;53.04;99533.45;1695071;82;21211;-74
2022/06/20 03:08:53;;;;;;;2.12;1.90;;;;;;;21.41;52.88;99528.44;1703660;84;21080;-77
2022/06/20 03:11:20;;;;;;;5.35;2.47;;;;;;;21.41;52.66;99533.36;1705299;84;22096;-78
2022/06/20 03:13:47;;;;;;;2.90;2.42;;;;;;;21.41;52.49;99522.97;1732805;82;20931;-82
2022/06/20 03:16:13;;;;;;;3.83;2.55;;;;;;;21.42;52.45;99532.80;1748153;81;21054;-81
2022/06/20 03:18:44;;;;;;;2.08;1.87;;;;;;;21.45;51.80;99532.12;1703875;84;21525;-78
2022/06/20 03:21:10;;;;;;;2.37;2.17;;;;;;;21.45;51.80;99532.12;1674401;83;21498;-76
2022/06/20 03:23:37;;;;;;;4.45;2.92;;;;;;;21.48;51.31;99531.50;1711555;82;21004;-80
2022/06/20 03:26:06;;;;;;;4.92;2.67;;;;;;;21.50;51.11;99534.70;1721473;82;21596;-80
2022/06/20 03:28:33;;;;;;;2.50;2.30;;;;;;;21.53;51.19;99531.33;1704345;84;20971;-79
2022/06/20 03:31:00;;;;;;;6.45;2.00;;;;;;;21.57;50.61;99535.83;1703889;84;20897;-81
2022/06/20 03:33:29;;;;;;;7.22;2.47;;;;;;;21.62;50.69;99540.31;1710450;82;21548;-80
2022/06/20 03:36:13;;;;;;;6.28;2.22;;;;;;;21.66;50.28;99539.34;1734541;82;21185;-79
2022/06/20 03:38:42;;;;;;;5.25;4.28;;;;;;;21.71;50.12;99532.88;1731987;82;20939;-77
2022/06/20 03:41:08;;;;;;;2.40;2.17;;;;;;;21.75;50.21;99530.53;1730126;82;21004;-76
2022/06/20 03:43:37;;;;;;;4.47;2.70;;;;;;;21.79;50.03;99523.82;1733195;82;21039;-76
2022/06/20 03:46:19;;;;;;;9.35;3.05;;;;;;;21.83;49.81;99515.75;1720858;82;21012;-77
2022/06/20 03:49:09;;;;;;;2.58;2.12;;;;;;;21.87;49.73;99515.35;1702662;84;22036;-76
2022/06/20 03:51:40;;;;;;;3.55;2.87;;;;;;;21.92;49.58;99506.95;1702720;84;20940;-76
2022/06/20 03:54:15;;;;;;;2.90;2.55;;;;;;;21.95;49.38;99507.13;1754815;81;20964;-76
2022/06/20 03:57:04;;;;;;;2.50;2.30;;;;;;;21.98;49.66;99498.23;1760746;81;21004;-76
2022/06/20 03:59:41;;;;;;;6.90;2.70;;;;;;;22.00;49.68;99491.88;1760949;80;20928;-79
2022/06/20 04:02:22;;;;;;;3.22;2.45;;;;;;;22.01;49.92;99488.01;1731461;81;21242;-79
2022/06/20 04:04:57;;;;;;;4.10;2.25;;;;;;;22.01;49.40;99489.94;1702400;84;21009;-75
2022/06/20 04:07:31;;;;;;;3.95;2.47;;;;;;;22.04;49.30;99483.23;1718480;82;21680;-76
2022/06/20 04:13:42;;;;;;;4.65;2.12;;;;;;;22.10;49.21;99473.70;1710744;82;21541;-77
2022/06/20 04:16:20;;;;;;;6.72;1.95;;;;;;;22.15;49.58;99465.85;1702877;84;21223;-77
2022/06/20 04:19:13;;;;;;;4.37;2.52;;;;;;;22.19;49.60;99466.79;1697508;84;20952;-77
2022/06/20 04:21:48;;;;;;;5.72;3.22;;;;;;;22.22;49.84;99456.52;1704667;82;21040;-77
2022/06/20 04:24:33;;;;;;;3.02;2.50;;;;;;;22.24;49.71;99447.42;1702964;84;21005;-78
2022/06/20 04:27:07;;;;;;;5.00;3.47;;;;;;;22.27;49.44;99442.63;1703304;84;21657;-78
2022/06/20 04:29:42;;;;;;;3.75;2.17;;;;;;;22.30;49.63;99440.58;1703474;84;21158;-77
2022/06/20 04:32:34;;;;;;;4.22;2.65;;;;;;;22.32;49.82;99435.59;1707973;82;21496;-78
2022/06/20 04:35:28;;;;;;;2.52;2.33;;;;;;;22.37;49.65;99429.10;1703235;82;20956;-79
2022/06/20 04:38:18;;;;;;;3.55;2.40;;;;;;;22.41;49.60;99433.58;1733372;82;21051;-77
2022/06/20 04:40:58;;;;;;;8.10;3.10;;;;;;;22.45;49.34;99426.28;1665300;86;21097;-77
2022/06/20 04:43:38;;;;;;;3.90;2.35;;;;;;;22.50;49.23;99419.23;1669342;82;21833;-78
2022/06/20 04:46:20;;;;;;;3.92;2.70;;;;;;;22.56;49.05;99424.75;1726244;82;22276;-76
2022/06/20 04:48:46;;;;;;;5.53;3.17;;;;;;;22.61;48.98;99415.52;1685983;84;21060;-76
2022/06/20 04:51:17;;;;;;;5.28;2.60;;;;;;;22.66;48.44;99416.69;1674329;84;21092;-77
2022/06/20 04:53:46;;;;;;;3.60;2.53;;;;;;;22.73;48.17;99412.88;1662909;84;21089;-77
2022/06/20 04:56:15;;;;;;;3.02;2.37;;;;;;;22.80;47.67;99417.80;1703726;84;21568;-79
2022/06/20 04:58:51;;;;;;;12.53;2.80;;;;;;;22.88;47.34;99414.96;1704247;82;21016;-80
2022/06/20 05:01:18;;;;;;;5.35;2.30;;;;;;;22.95;47.00;99416.59;1703727;84;21023;-81
2022/06/20 05:03:49;;;;;;;5.50;2.40;;;;;;;23.04;46.87;99425.53;1703053;84;21047;-80
2022/06/20 05:06:24;;;;;;;5.28;2.60;;;;;;;23.10;46.61;99411.03;1674490;84;21098;-80
2022/06/20 05:08:56;;;;;;;3.37;1.90;;;;;;;23.19;46.58;99409.56;1683659;84;21020;-80
2022/06/20 05:11:42;;;;;;;5.97;2.75;;;;;;;23.27;46.43;99421.00;1674505;85;21096;-80
2022/06/20 05:14:35;;;;;;;3.40;2.83;;;;;;;23.34;46.56;99424.00;1699520;84;21064;-78
2022/06/20 05:17:03;;;;;;;3.40;2.10;;;;;;;23.41;46.56;99423.66;1701947;84;21551;-78
2022/06/20 05:19:38;;;;;;;5.92;3.27;;;;;;;23.49;46.50;99412.95;1675431;84;21003;-81
2022/06/20 05:22:26;;;;;;;5.28;2.77;;;;;;;23.54;45.85;99409.42;1702015;84;22181;-80
2022/06/20 05:24:53;;;;;;;5.78;2.62;;;;;;;23.61;45.66;99420.63;1750235;81;21571;-80
2022/06/20 05:27:33;;;;;;;3.00;2.50;;;;;;;23.69;45.98;99420.30;1732720;82;20988;-77
2022/06/20 05:30:01;;;;;;;4.08;2.80;;;;;;;23.73;45.67;99412.39;1733864;82;20966;-77
2022/06/20 05:32:36;;;;;;;3.10;2.35;;;;;;;23.80;45.46;99417.30;1722953;82;20985;-76
2022/06/20 05:35:11;;;;;;;3.52;2.10;;;;;;;23.86;45.35;99413.18;1712444;82;21100;-77
2022/06/20 05:37:48;;;;;;;5.95;2.65;;;;;;;23.90;45.37;99408.59;1720894;82;21015;-79
2022/06/20 05:40:39;;;;;;;6.95;2.45;;;;;;;23.95;45.12;99413.86;1700145;82;21036;-78
2022/06/20 05:43:17;;;;;;;5.03;3.22;;;;;;;24.00;45.21;99416.38;1702234;84;22292;-78
2022/06/20 05:45:41;;;;;;;3.17;2.83;;;;;;;24.05;45.01;99413.39;1720094;82;21016;-77
2022/06/20 05:48:10;;;;;;;3.62;2.70;;;;;;;24.09;45.02;99414.86;1728866;83;21233;-77
2022/06/20 05:50:55;;;;;;;4.70;2.58;;;;;;;24.12;44.73;99404.57;1729726;82;21494;-77
2022/06/20 05:53:38;;;;;;;4.17;2.33;;;;;;;24.18;44.39;99414.19;1703378;84;21015;-76
2022/06/20 05:56:23;;;;;;;5.12;2.70;;;;;;;24.24;44.45;99398.50;1729799;82;21242;-77
2022/06/20 05:58:50;;;;;;;3.95;2.62;;;;;;;24.29;44.52;99398.25;1765316;81;21047;-77
2022/06/20 06:01:21;;;;;;;3.58;2.60;;;;;;;24.35;44.44;99393.31;1733071;82;21862;-76
2022/06/20 06:04:16;;;;;;;4.87;2.65;;;;;;;24.41;44.71;99382.88;1733506;82;21019;-76
2022/06/20 06:06:51;;;;;;;6.05;2.25;;;;;;;24.45;44.62;99372.78;1722167;82;21049;-78
2022/06/20 06:09:44;;;;;;;2.83;2.62;;;;;;;24.47;45.01;99359.46;1702373;84;21036;-78
2022/06/20 06:12:22;;;;;;;8.85;2.72;;;;;;;24.54;44.58;99361.05;1695322;84;21026;-80
2022/06/20 06:14:55;;;;;;;7.42;3.55;;;;;;;24.60;44.22;99361.84;1725596;82;21344;-77
2022/06/20 06:17:32;;;;;;;;;;;;;;;24.64;44.15;99363.30;1710038;82;20949;-79
2022/06/20 06:20:02;;;;;;;2.75;2.30;;;;;;;24.67;43.64;99373.02;1710078;82;20102;-77
2022/06/20 06:22:34;;;;;;;3.37;2.00;;;;;;;24.71;43.44;99355.23;1677646;84;21005;-79
2022/06/20 06:25:12;;;;;;;4.83;2.95;;;;;;;24.76;43.59;99358.53;1660936;84;21018;-78
2022/06/20 06:27:40;;;;;;;7.30;3.40;;;;;;;24.82;43.38;99348.64;1659225;86;21839;-77
2022/06/20 06:30:24;;;;;;;4.15;2.87;;;;;;;24.86;43.93;99333.83;1659944;86;21027;-76
2022/06/20 06:32:56;;;;;;;5.62;2.98;;;;;;;24.93;43.35;99338.19;1722230;83;21528;-77
2022/06/20 06:35:42;;;;;;;2.17;1.70;;;;;;;25.01;43.13;99328.14;1710520;82;21547;-76
2022/06/20 06:38:32;;;;;;;2.87;2.20;;;;;;;25.10;43.35;99328.20;1671718;84;21541;-76
2022/06/20 06:40:59;;;;;;;4.12;3.02;;;;;;;25.19;42.40;99324.69;1662257;85;21275;-74
2022/06/20 06:43:37;;;;;;;2.55;1.65;;;;;;;25.27;40.65;99332.55;1662358;85;21007;-73
2022/06/20 06:46:01;;;;;;;4.60;2.20;;;;;;;25.34;40.77;99324.45;1688536;83;21482;-74
2022/06/20 06:48:36;;;;;;;5.00;2.45;;;;;;;25.41;40.27;99331.52;1705648;83;22377;-75
2022/06/20 06:51:13;;;;;;;4.22;2.17;;;;;;;25.48;40.24;99322.04;1698844;84;21606;-74
2022/06/20 06:53:45;;;;;;;2.60;2.40;;;;;;;25.55;40.11;99317.31;1658476;86;21389;-74
2022/06/20 06:56:20;;;;;;;7.33;2.90;;;;;;;25.60;39.19;99316.46;1661772;86;21046;-74
2022/06/20 06:58:56;;;;;;;3.72;2.60;;;;;;;25.66;39.01;99329.36;1690266;84;21104;-77
2022/06/20 07:01:33;;;;;;;3.22;2.92;;;;;;;25.72;38.53;99314.73;1667769;84;21057;-78
2022/06/20 07:04:23;;;;;;;6.58;3.22;;;;;;;25.77;38.82;99315.25;1673363;85;21069;-78
2022/06/20 07:06:55;;;;;;;9.93;3.35;;;;;;;25.83;38.69;99315.77;1658280;83;21140;-74
2022/06/20 07:09:36;;;;;;;3.23;2.77;;;;;;;25.90;38.61;99307.67;1717994;83;21008;-77
2022/06/20 07:12:20;;;;;;;7.85;3.02;;;;;;;25.97;38.23;99309.99;1719387;83;20977;-78
2022/06/20 07:15:01;;;;;;;6.40;2.65;;;;;;;26.03;37.76;99298.91;1696135;83;21574;-77
2022/06/20 07:17:36;;;;;;;3.85;2.15;;;;;;;26.09;37.56;99302.75;1690053;83;21528;-78
2022/06/20 07:20:05;;;;;;;3.17;2.72;;;;;;;26.15;36.97;99310.93;1690242;84;21210;-77
2022/06/20 07:22:32;;;;;;;9.93;2.22;;;;;;;26.20;37.13;99300.98;1710231;82;21106;-79
2022/06/20 07:24:59;;;;;;;9.18;2.92;;;;;;;26.27;37.05;99302.56;1712145;83;21001;-79
2022/06/20 07:27:40;;;;;;;2.70;2.25;;;;;;;26.34;37.06;99308.20;1688879;84;21009;-78
2022/06/20 07:30:26;;;;;;;3.72;2.35;;;;;;;26.44;36.53;99311.17;1659817;86;21111;-79
2022/06/20 07:33:09;;;;;;;4.92;2.58;;;;;;;26.53;36.53;99315.66;1660386;85;21028;-79
2022/06/20 07:35:40;;;;;;;9.95;2.35;;;;;;;26.60;36.24;99303.39;1652380;85;20946;-79
2022/06/20 07:38:41;;;;;;;2.72;1.82;;;;;;;26.66;36.15;99286.18;1660607;86;21561;-79
2022/06/20 07:41:15;;;;;;;9.68;2.72;;;;;;;26.72;35.42;99292.97;1685926;84;21028;-79
2022/06/20 07:43:56;;;;;;;2.45;1.75;;;;;;;26.82;35.29;99300.64;1680603;83;21044;-78
2022/06/20 07:46:43;;;;;;;4.00;2.20;;;;;;;26.88;35.29;99292.89;1706528;83;21141;-78
2022/06/20 07:49:32;;;;;;;6.42;2.20;;;;;;;26.94;35.05;99307.19;1670561;85;38748;-80
2022/06/20 07:52:06;;;;;;;3.05;1.98;;;;;;;27.00;34.62;99286.39;1659335;85;21104;-80
2022/06/20 09:32:16;;;;;;;2.47;1.65;;;;;;;29.16;31.86;99236.53;1815069;77;33458;-74
2022/06/20 09:35:11;;;;;;;4.37;2.12;;;;;;;29.16;31.95;99235.16;1781980;79;20947;-72
2022/06/20 09:38:22;;;;;;;2.27;1.75;;;;;;;29.18;32.28;99237.73;1772191;80;21274;-73
2022/06/20 09:41:16;;;;;;;3.62;1.60;;;;;;;29.29;32.14;99244.73;1780608;78;21031;-71
2022/06/20 09:44:24;;;;;;;2.67;1.82;;;;;;;29.41;31.53;99241.08;1795768;79;21028;-70
2022/06/20 09:47:13;;;;;;;3.17;1.98;;;;;;;29.49;31.04;99227.27;1788092;80;20995;-71
2022/06/20 09:49:50;;;;;;;4.45;1.80;;;;;;;29.54;30.74;99276.80;1759153;81;20940;-70
2022/06/20 09:52:58;;;;;;;4.00;2.02;;;;;;;29.50;30.79;99260.73;1798403;79;21333;-72
2022/06/20 10:09:21;;;;;;;5.70;2.17;;;;;;;30.22;30.64;99219.86;1779519;78;25411;-76
2022/06/20 10:11:54;;;;;;;10.55;2.47;;;;;;;30.36;30.37;99232.20;1759169;81;21025;-74
2022/06/20 10:14:44;;;;;;;8.10;2.17;;;;;;;30.49;30.26;99218.97;1764169;80;21053;-77
2022/06/20 10:17:19;;;;;;;3.55;2.05;;;;;;;30.56;29.85;99207.86;1756738;81;21527;-78
2022/06/20 10:20:27;;;;;;;2.50;2.20;;;;;;;30.62;29.98;99199.94;1762387;81;20948;-71
2022/06/20 10:23:16;;;;;;;6.67;2.55;;;;;;;30.67;29.84;99207.87;1766305;81;20991;-72
2022/06/20 10:26:24;;;;;;;3.10;1.95;;;;;;;30.67;29.78;99184.27;1766470;80;21019;-73
2022/06/20 10:29:22;;;;;;;4.47;2.02;;;;;;;30.66;29.56;99169.59;1765411;80;22105;-77
2022/06/20 10:32:04;;;;;;;3.83;2.27;;;;;;;30.61;29.56;99185.84;1762774;80;20951;-82
2022/06/20 10:34:44;;;;;;;4.87;2.17;;;;;;;30.56;29.74;99180.69;1761467;81;20986;-83
2022/06/20 10:37:37;;;;;;;4.15;2.02;;;;;;;30.59;29.47;99187.66;1777997;79;20924;-85
2022/06/20 10:40:54;;;;;;;4.55;2.25;;;;;;;30.60;29.39;99173.18;1797812;79;21532;-86
2022/06/20 10:43:46;;;;;;;3.15;2.47;;;;;;;30.62;29.56;99196.56;1736076;82;21087;-85
2022/06/20 10:46:28;;;;;;;3.95;1.70;;;;;;;30.61;29.77;99185.84;1735760;82;20978;-83
2022/06/20 10:49:21;;;;;;;6.53;1.75;;;;;;;30.67;29.73;99193.40;1735553;82;21045;-77
2022/06/20 10:52:01;;;;;;;5.75;1.75;;;;;;;30.75;29.32;99155.30;1736558;81;21040;-82
2022/06/20 10:55:10;;;;;;;3.67;1.90;;;;;;;30.86;29.07;99180.30;1736032;82;21077;-84
2022/06/20 10:58:10;;;;;;;6.92;2.42;;;;;;;30.94;28.70;99181.86;1756084;81;21676;-85
2022/06/20 11:00:45;;;;;;;2.30;2.10;;;;;;;30.80;28.93;99177.12;1766991;79;21018;-83
2022/06/20 11:03:51;;;;;;;6.12;2.12;;;;;;;30.80;29.13;99167.40;1766093;81;21013;-77
2022/06/20 11:06:39;;;;;;;2.27;1.60;;;;;;;30.83;29.22;99159.68;1785114;79;21519;-76
2022/06/20 11:09:47;;;;;;;6.10;1.82;;;;;;;30.90;28.99;99154.09;1796629;79;21016;-73
2022/06/20 11:12:40;;;;;;;1.82;1.72;;;;;;;30.97;28.70;99137.44;1797177;79;21037;-76
2022/06/20 11:15:33;;;;;;;10.78;2.05;;;;;;;30.98;28.63;99136.84;1797095;79;21231;-81
2022/06/20 11:18:20;;;;;;;1.60;1.30;;;;;;;30.99;28.77;99135.03;1782833;79;21058;-74
2022/06/20 11:21:08;;;;;;;10.90;2.70;;;;;;;31.05;29.02;99133.47;1765509;81;21041;-76
2022/06/20 11:24:02;;;;;;;4.20;1.80;;;;;;;31.13;28.75;99136.42;1764685;79;21034;-74
2022/06/20 11:26:59;;;;;;;3.55;1.47;;;;;;;31.28;28.36;99142.73;1797175;79;21137;-73
2022/06/20 11:29:52;;;;;;;4.05;2.15;;;;;;;31.42;28.01;99130.17;1781954;79;20979;-74
2022/06/20 11:32:25;;;;;;;;;;;;;;;31.60;27.43;99135.71;1767930;79;21119;-73
2022/06/20 11:35:37;;;;;;;7.65;4.80;;;;;;;31.60;27.56;99142.66;1766034;81;20148;-76
2022/06/20 11:38:28;;;;;;;2.22;2.08;;;;;;;31.58;27.42;99123.59;1767706;79;21018;-73
2022/06/20 11:41:15;;;;;;;3.98;1.90;;;;;;;31.65;27.76;99128.94;1762019;81;21776;-79
2022/06/20 11:44:16;;;;;;;10.43;2.45;;;;;;;31.68;27.45;99118.38;1761137;81;21030;-74
2022/06/20 11:47:10;;;;;;;7.87;2.12;;;;;;;31.76;27.64;99129.05;1762121;81;21106;-73
2022/06/20 11:50:25;;;;;;;2.50;2.00;;;;;;;31.90;27.13;99135.13;1721090;81;21063;-75
2022/06/20 11:53:31;;;;;;;2.50;1.60;;;;;;;31.99;27.00;99129.94;1757237;81;21004;-74
2022/06/20 11:56:24;;;;;;;2.17;2.00;;;;;;;32.08;26.93;99141.41;1756965;81;21224;-75
2022/06/20 11:59:24;;;;;;;2.92;1.80;;;;;;;32.12;26.89;99114.38;1788487;79;20972;-75
2022/06/20 12:02:11;;;;;;;1.52;1.40;;;;;;;32.28;26.98;99104.13;1797031;79;20960;-72
2022/06/20 12:04:49;;;;;;;3.75;1.55;;;;;;;32.29;26.40;99114.03;1796949;79;21010;-74
2022/06/20 12:07:42;;;;;;;4.17;1.72;;;;;;;32.16;26.42;99110.96;1796545;78;21046;-76
2022/06/20 12:10:39;;;;;;;4.03;1.75;;;;;;;32.15;26.44;99101.02;1792167;79;21778;-73
2022/06/20 12:13:17;;;;;;;2.15;1.52;;;;;;;32.27;26.62;99081.06;1792184;80;20999;-75
2022/06/20 12:16:02;;;;;;;4.33;1.95;;;;;;;32.46;26.46;99083.88;1788909;79;21590;-76
2022/06/20 12:18:39;;;;;;;1.72;1.45;;;;;;;32.61;26.31;99088.13;1775762;80;21027;-74
2022/06/20 12:24:00;;;;;;;6.33;1.50;;;;;;;32.50;25.91;99067.14;1779564;80;21119;-72
2022/06/20 12:26:32;;;;;;;4.78;1.47;;;;;;;32.59;25.99;99067.45;1788482;80;20972;-71
2022/06/20 12:29:01;;;;;;;4.75;1.92;;;;;;;32.69;25.67;99074.94;1778417;80;20960;-74
2022/06/20 12:31:37;;;;;;;8.05;2.90;;;;;;;32.63;25.80;99062.63;1791825;80;21516;-70
2022/06/20 12:34:49;;;;;;;2.20;1.47;;;;;;;32.65;26.20;99062.45;1779402;80;20932;-69
2022/06/20 12:37:36;;;;;;;3.35;1.75;;;;;;;32.75;26.32;99062.94;1791416;80;21129;-71
2022/06/20 12:40:21;;;;;;;5.12;2.02;;;;;;;32.99;25.87;99066.66;1792216;80;20936;-69
2022/06/20 12:42:58;;;;;;;2.02;1.70;;;;;;;33.21;25.63;99058.86;1792320;79;21572;-69
2022/06/20 12:45:53;;;;;;;4.42;2.02;;;;;;;33.39;25.41;99039.89;1791841;79;21482;-70
2022/06/20 12:49:03;;;;;;;7.05;1.90;;;;;;;33.49;25.59;99042.35;1784860;80;20967;-69
2022/06/20 12:51:54;;;;;;;2.47;2.22;;;;;;;33.61;25.32;99045.98;1792327;80;22282;-69
2022/06/20 12:54:51;;;;;;;4.65;1.95;;;;;;;33.76;24.85;99036.23;1792306;79;20960;-70
2022/06/20 12:57:55;;;;;;;5.50;1.80;;;;;;;33.87;24.75;99024.88;1790952;80;21110;-69
2022/06/20 13:00:42;;;;;;;1.40;1.30;;;;;;;33.99;24.64;99038.26;1747383;82;20970;-73
2022/06/20 13:03:56;;;;;;;2.40;1.67;;;;;;;33.96;24.61;99016.76;1760187;80;21017;-77
2022/06/20 13:06:51;;;;;;;1.17;1.07;;;;;;;33.81;24.66;99028.78;1780597;80;21143;-79
2022/06/20 13:09:49;;;;;;;4.28;1.77;;;;;;;33.73;24.75;99009.95;1772678;79;21050;-78
2022/06/20 13:12:47;;;;;;;5.33;1.82;;;;;;;33.85;24.74;99009.19;1775954;79;20968;-76
2022/06/20 13:15:40;;;;;;;4.87;1.72;;;;;;;33.90;24.43;98999.73;1761186;81;20979;-75
2022/06/20 13:18:19;;;;;;;;;;;;;;;33.95;24.63;99005.44;1757341;81;21524;-71
2022/06/20 13:21:14;;;;;;;7.47;1.70;;;;;;;33.98;24.40;99003.98;1722891;83;20808;-76
2022/06/20 13:24:23;;;;;;;3.17;1.90;;;;;;;33.87;24.33;98987.21;1719361;83;21028;-76
2022/06/20 13:27:12;;;;;;;3.62;1.35;;;;;;;33.91;24.28;99006.87;1730071;81;21489;-73
2022/06/20 13:29:47;;;;;;;3.27;1.27;;;;;;;33.92;24.42;99008.45;1717815;81;21010;-73
2022/06/20 13:32:28;;;;;;;2.50;1.62;;;;;;;33.87;24.23;98990.00;1711748;83;21102;-72
2022/06/20 13:35:02;;;;;;;3.40;1.42;;;;;;;33.80;24.59;98994.32;1735100;81;21345;-76
2022/06/20 13:38:06;;;;;;;3.80;1.45;;;;;;;33.89;24.45;98993.17;1678483;81;21063;-75
2022/06/20 13:41:10;;;;;;;2.92;2.00;;;;;;;33.92;24.46;98992.31;1723886;83;20975;-69
2022/06/20 13:44:06;;;;;;;9.75;2.00;;;;;;;33.91;24.57;98979.59;1729049;81;20933;-72
2022/06/20 13:46:48;;;;;;;4.60;1.85;;;;;;;34.05;24.47;98974.53;1737143;81;21063;-72
2022/06/20 13:49:28;;;;;;;4.28;1.72;;;;;;;34.10;24.42;98967.70;1731004;81;21101;-72
2022/06/20 13:52:16;;;;;;;3.70;1.70;;;;;;;34.06;24.45;98966.95;1725924;81;21561;-72
2022/06/20 13:54:51;;;;;;;1.77;1.67;;;;;;;34.22;24.18;98969.11;1729961;81;21150;-73
2022/06/20 13:57:40;;;;;;;1.27;1.17;;;;;;;34.42;23.80;98983.30;1722486;83;21035;-73
2022/06/20 14:00:28;;;;;;;2.52;1.70;;;;;;;34.43;23.57;98959.75;1722681;83;21067;-72
2022/06/20 14:03:24;;;;;;;4.35;1.47;;;;;;;34.54;23.69;98967.29;1722828;83;21523;-73
2022/06/20 14:05:51;;;;;;;4.08;1.77;;;;;;;34.56;23.49;98959.28;1727580;81;21429;-75
2022/06/20 14:08:28;;;;;;;1.62;1.32;;;;;;;34.59;23.62;98952.83;1678675;82;20971;-76
2022/06/20 14:11:01;;;;;;;5.95;1.62;;;;;;;34.57;23.71;98939.13;1732477;82;21047;-74
2022/06/20 14:13:33;;;;;;;4.65;1.40;;;;;;;34.60;23.76;98934.06;1731660;82;20974;-73
2022/06/20 14:16:28;;;;;;;4.78;1.77;;;;;;;34.79;23.67;98937.48;1739932;81;21188;-75
2022/06/20 14:19:00;;;;;;;2.33;1.90;;;;;;;34.88;23.58;98931.31;1703905;84;21038;-74
2022/06/20 14:21:41;;;;;;;9.30;1.95;;;;;;;34.76;23.50;98920.80;1708524;82;21019;-71
2022/06/20 14:24:33;;;;;;;1.87;1.67;;;;;;;34.74;23.69;98916.25;1731954;82;21052;-70
2022/06/20 14:27:06;;;;;;;3.02;1.72;;;;;;;34.77;23.71;98914.00;1764913;81;20979;-70
2022/06/20 14:29:37;;;;;;;3.75;1.90;;;;;;;34.77;23.80;98904.22;1764891;81;21114;-72
2022/06/20 14:32:12;;;;;;;2.62;2.33;;;;;;;34.79;23.49;98918.53;1763325;81;21435;-71
2022/06/20 14:35:21;;;;;;;5.78;1.37;;;;;;;34.69;23.39;98921.73;1764037;81;20883;-72